Time;durP1;ratioP1;P1;durP2;ratioP2;P2;SDS_P1;SDS_P2;PMS_P1;PMS_P2;Temp;Humidity;BMP_temperature;BMP_pressure;BME280_temperature;BME280_humidity;BME280_pressure;Samples;Min_cycle;Max_cycle;Signal;HPM_P1;HPM_P2
2022/09/06 00:01:01;;;;;;;2.27;1.30;;;15.80;99.90;;;;;;5007661;28;20484;-52
2022/09/06 00:03:28;;;;;;;4.33;1.50;;;15.80;99.90;;;;;;5009236;28;20544;-52
2022/09/06 00:05:55;;;;;;;3.80;0.83;;;15.80;99.90;;;;;;5007130;28;20459;-53
2022/09/06 00:08:22;;;;;;;2.70;1.20;;;15.70;99.90;;;;;;5009942;28;20463;-53
2022/09/06 00:10:57;;;;;;;1.23;1.13;;;15.70;99.90;;;;;;5007832;28;20460;-53
2022/09/06 00:13:24;;;;;;;1.57;1.03;;;15.70;99.90;;;;;;5009059;28;20494;-52
2022/09/06 00:15:50;;;;;;;3.37;1.20;;;15.70;99.90;;;;;;5008494;28;20514;-53
2022/09/06 00:18:17;;;;;;;2.80;1.33;;;15.70;99.90;;;;;;5008829;28;20499;-53
2022/09/06 00:20:45;;;;;;;2.43;0.93;;;15.70;99.90;;;;;;5007522;28;20541;-53
2022/09/06 00:23:12;;;;;;;1.03;1.00;;;15.60;99.90;;;;;;5006587;28;20620;-54
2022/09/06 00:25:40;;;;;;;1.33;1.23;;;15.70;99.90;;;;;;5007883;28;20459;-53
2022/09/06 00:28:06;;;;;;;4.53;1.27;;;15.60;99.90;;;;;;5007910;28;20529;-54
2022/09/06 00:30:34;;;;;;;1.60;1.00;;;15.60;99.90;;;;;;5013347;28;20459;-53
2022/09/06 00:33:00;;;;;;;1.63;1.03;;;15.60;99.90;;;;;;5009971;28;20537;-53
2022/09/06 00:35:28;;;;;;;7.33;1.00;;;15.60;99.90;;;;;;5010125;28;20473;-53
2022/09/06 00:37:58;;;;;;;3.10;1.60;;;15.60;99.90;;;;;;5007698;28;21012;-53
2022/09/06 00:40:25;;;;;;;1.47;1.10;;;15.60;99.90;;;;;;5009924;28;20510;-56
2022/09/06 00:42:52;;;;;;;1.20;1.10;;;15.50;99.90;;;;;;5007809;28;20506;-53
2022/09/06 00:45:19;;;;;;;4.53;1.87;;;15.50;99.90;;;;;;5006824;28;20459;-52
2022/09/06 00:47:46;;;;;;;1.67;1.07;;;15.50;99.90;;;;;;5006345;28;20533;-53
2022/09/06 00:50:15;;;;;;;2.80;1.10;;;15.30;99.90;;;;;;5003075;28;20456;-53
2022/09/06 00:52:44;;;;;;;1.83;1.27;;;15.30;99.90;;;;;;5004622;28;20898;-53
2022/09/06 00:55:12;;;;;;;0.80;0.80;;;15.20;99.90;;;;;;5004325;28;20490;-52
2022/09/06 00:57:39;;;;;;;2.50;1.00;;;15.20;99.90;;;;;;5003257;28;20447;-53
2022/09/06 01:00:08;;;;;;;2.60;1.10;;;15.10;99.90;;;;;;5007139;28;20484;-52
2022/09/06 01:02:34;;;;;;;7.43;1.40;;;15.00;99.90;;;;;;5007194;28;20574;-52
2022/09/06 01:05:02;;;;;;;1.10;1.00;;;14.90;99.90;;;;;;5003920;28;20537;-53
2022/09/06 01:07:39;;;;;;;2.50;0.93;;;14.80;99.90;;;;;;5007327;28;20873;-53
2022/09/06 01:10:25;;;;;;;3.00;1.13;;;14.70;99.90;;;;;;5005033;28;20451;-53
2022/09/06 01:12:59;;;;;;;1.77;0.90;;;14.70;99.90;;;;;;5009239;28;20484;-53
2022/09/06 01:15:37;;;;;;;1.00;0.80;;;14.60;99.90;;;;;;5004695;28;22637;-53
2022/09/06 01:18:15;;;;;;;2.90;1.27;;;14.60;99.90;;;;;;5008946;28;22268;-53
2022/09/06 01:20:59;;;;;;;5.40;1.23;;;14.50;99.90;;;;;;5004824;28;20479;-53
2022/09/06 01:23:54;;;;;;;2.20;1.00;;;14.50;99.90;;;;;;5008001;28;21055;-53
2022/09/06 01:27:00;;;;;;;1.70;1.10;;;14.50;99.90;;;;;;4999737;28;20471;-53
2022/09/06 01:29:33;;;;;;;7.00;1.20;;;14.50;99.90;;;;;;5008942;28;20451;-52
2022/09/06 01:32:05;;;;;;;2.47;0.93;;;14.50;99.90;;;;;;5003732;28;20523;-53
2022/09/06 01:34:37;;;;;;;3.10;1.17;;;14.50;99.90;;;;;;5001945;28;20460;-53
2022/09/06 01:37:08;;;;;;;1.07;1.00;;;14.50;99.90;;;;;;5006996;28;20459;-53
2022/09/06 01:39:36;;;;;;;1.63;1.10;;;14.40;99.90;;;;;;5009152;28;20566;-53
2022/09/06 01:42:07;;;;;;;1.40;1.10;;;14.50;99.90;;;;;;5004482;28;20510;-52
2022/09/06 01:44:37;;;;;;;2.10;1.50;;;14.60;99.90;;;;;;5008825;28;20525;-52
2022/09/06 01:47:13;;;;;;;3.13;1.13;;;14.60;99.90;;;;;;5009644;28;20518;-52
2022/09/06 01:49:51;;;;;;;1.03;1.03;;;14.60;99.90;;;;;;5012169;28;20517;-53
2022/09/06 01:52:23;;;;;;;4.70;0.90;;;14.70;99.90;;;;;;5004072;28;20482;-53
2022/09/06 01:55:05;;;;;;;2.00;1.30;;;14.70;1.40;;;;;;5008055;28;20483;-53
2022/09/06 01:57:47;;;;;;;4.13;1.40;;;14.70;99.90;;;;;;5011495;28;20467;-53
2022/09/06 02:00:18;;;;;;;1.43;1.23;;;14.80;99.90;;;;;;5009295;28;20483;-53
2022/09/06 02:02:59;;;;;;;1.67;1.17;;;14.80;99.90;;;;;;5008358;28;20849;-53
2022/09/06 02:05:32;;;;;;;1.07;1.07;;;14.90;99.90;;;;;;5006588;28;20957;-53
2022/09/06 02:08:04;;;;;;;3.37;1.07;;;14.90;99.90;;;;;;5010245;28;20470;-53
2022/09/06 02:10:37;;;;;;;2.60;1.27;;;15.00;99.90;;;;;;5011075;28;20889;-53
2022/09/06 02:13:05;;;;;;;1.53;0.93;;;15.00;99.90;;;;;;5008974;28;21014;-53
2022/09/06 02:15:36;;;;;;;8.43;1.20;;;15.00;99.90;;;;;;5011082;28;20699;-53
2022/09/06 02:18:08;;;;;;;1.47;1.00;;;15.00;99.90;;;;;;5010985;28;20553;-52
2022/09/06 02:20:41;;;;;;;1.43;1.23;;;15.00;99.90;;;;;;5009338;28;21008;-52
2022/09/06 02:23:08;;;;;;;5.00;1.50;;;15.00;99.90;;;;;;5012664;28;20495;-52
2022/09/06 02:25:38;;;;;;;1.23;1.07;;;15.10;99.90;;;;;;5010409;28;20554;-52
2022/09/06 02:28:06;;;;;;;4.33;1.40;;;15.10;99.90;;;;;;5005513;28;20487;-53
2022/09/06 02:30:38;;;;;;;2.40;0.93;;;15.10;99.90;;;;;;5010598;28;20525;-53
2022/09/06 02:33:10;;;;;;;4.43;1.23;;;15.10;99.90;;;;;;5006730;28;20531;-52
2022/09/06 02:35:43;;;;;;;1.17;1.07;;;15.10;99.90;;;;;;5007070;28;20465;-52
2022/09/06 02:38:10;;;;;;;1.10;1.00;;;15.10;99.90;;;;;;5009960;28;20542;-53
2022/09/06 02:40:37;;;;;;;1.50;1.40;;;15.10;99.90;;;;;;5008055;28;20546;-52
2022/09/06 02:43:03;;;;;;;4.50;1.27;;;15.10;99.90;;;;;;5007836;28;20964;-52
2022/09/06 02:45:30;;;;;;;1.00;0.80;;;15.10;99.90;;;;;;5007927;28;20581;-53
2022/09/06 02:47:58;;;;;;;4.93;1.20;;;15.10;99.90;;;;;;5008385;28;20495;-52
2022/09/06 02:50:24;;;;;;;1.37;1.20;;;15.00;99.90;;;;;;5005569;28;20492;-53
2022/09/06 02:53:01;;;;;;;2.00;1.20;;;15.00;99.90;;;;;;5007835;28;20518;-52
2022/09/06 02:55:28;;;;;;;3.50;1.20;;;15.00;99.90;;;;;;5006686;28;20468;-52
2022/09/06 02:57:55;;;;;;;0.97;0.97;;;14.90;99.90;;;;;;5008709;28;20491;-52
2022/09/06 03:00:21;;;;;;;5.87;0.97;;;14.90;99.90;;;;;;5007824;28;20568;-53
2022/09/06 03:02:48;;;;;;;1.20;1.10;;;14.80;99.90;;;;;;5008958;28;20562;-53
2022/09/06 03:05:16;;;;;;;2.20;1.33;;;14.70;99.90;;;;;;5006064;28;20483;-52
2022/09/06 03:07:43;;;;;;;2.37;1.13;;;14.70;99.90;;;;;;5007736;28;21004;-53
2022/09/06 03:10:09;;;;;;;2.00;1.00;;;14.60;99.90;;;;;;5010902;28;20539;-53
2022/09/06 03:12:36;;;;;;;1.57;1.07;;;14.60;99.90;;;;;;5007227;28;21513;-53
2022/09/06 03:15:04;;;;;;;2.00;1.20;;;14.50;99.90;;;;;;5011660;28;20848;-53
2022/09/06 03:17:30;;;;;;;5.33;1.30;;;14.50;99.90;;;;;;5007600;28;20491;-53
2022/09/06 03:19:57;;;;;;;1.57;1.00;;;14.50;99.90;;;;;;5011654;28;20522;-52
2022/09/06 03:22:25;;;;;;;0.97;0.90;;;14.40;99.90;;;;;;5002760;28;20549;-53
2022/09/06 03:24:51;;;;;;;3.63;1.40;;;14.40;99.90;;;;;;5007614;28;20499;-53
2022/09/06 03:27:18;;;;;;;1.53;1.20;;;14.30;99.90;;;;;;5008149;28;20518;-52
2022/09/06 03:29:44;;;;;;;1.47;1.20;;;14.30;99.90;;;;;;5010249;28;21426;-53
2022/09/06 03:32:11;;;;;;;1.53;1.30;;;14.30;99.90;;;;;;5008403;28;20954;-52
2022/09/06 03:34:37;;;;;;;1.57;1.23;;;14.30;99.90;;;;;;5008551;28;20460;-52
2022/09/06 03:37:04;;;;;;;0.93;0.93;;;14.30;99.90;;;;;;5004947;28;20542;-53
2022/09/06 03:39:32;;;;;;;1.33;1.13;;;14.30;99.90;;;;;;5008518;28;20879;-53
2022/09/06 03:41:59;;;;;;;2.30;1.20;;;14.20;99.90;;;;;;5004908;28;20966;-53
2022/09/06 03:44:25;;;;;;;3.53;1.20;;;14.20;99.90;;;;;;5010084;28;20463;-53
2022/09/06 03:46:52;;;;;;;4.27;1.50;;;14.30;99.90;;;;;;5008358;28;20491;-52
2022/09/06 03:49:18;;;;;;;4.00;1.20;;;14.20;99.90;;;;;;5009953;28;20495;-53
2022/09/06 03:51:45;;;;;;;1.67;1.57;;;14.20;99.90;;;;;;5005433;28;20511;-52
2022/09/06 03:54:12;;;;;;;1.10;1.10;;;14.30;99.90;;;;;;5010299;28;20964;-52
2022/09/06 03:56:39;;;;;;;3.03;1.13;;;14.20;99.90;;;;;;5007459;28;20561;-52
2022/09/06 03:59:06;;;;;;;2.30;1.40;;;14.20;99.90;;;;;;5010469;28;20840;-53
2022/09/06 04:01:33;;;;;;;1.10;1.10;;;14.20;99.90;;;;;;5005966;28;20974;-53
2022/09/06 04:04:00;;;;;;;5.20;1.30;;;14.20;99.90;;;;;;5014491;28;20464;-52
2022/09/06 04:06:26;;;;;;;1.43;1.30;;;14.20;99.90;;;;;;5007637;28;20460;-53
2022/09/06 04:08:53;;;;;;;1.57;1.20;;;14.20;99.90;;;;;;5012162;28;20487;-53
2022/09/06 04:11:20;;;;;;;1.83;1.50;;;14.20;99.90;;;;;;5014321;28;20835;-52
2022/09/06 04:13:48;;;;;;;2.07;1.53;;;14.20;99.90;;;;;;5009048;28;20491;-54
2022/09/06 04:16:16;;;;;;;1.73;1.30;;;14.20;99.90;;;;;;5007465;28;20497;-53
2022/09/06 04:18:42;;;;;;;1.90;1.50;;;14.20;99.90;;;;;;5005170;28;20543;-53
2022/09/06 04:21:09;;;;;;;1.47;1.20;;;14.20;99.90;;;;;;5006047;28;21013;-52
2022/09/06 04:23:36;;;;;;;2.87;1.13;;;14.20;99.90;;;;;;5010007;28;20839;-53
2022/09/06 04:26:03;;;;;;;4.77;1.30;;;14.20;99.90;;;;;;5007871;28;20459;-54
2022/09/06 04:28:30;;;;;;;5.03;2.10;;;14.20;99.90;;;;;;5007736;28;20902;-53
2022/09/06 04:30:59;;;;;;;2.20;1.70;;;14.20;99.90;;;;;;5003202;28;20586;-53
2022/09/06 04:33:28;;;;;;;2.27;1.90;;;14.20;99.90;;;;;;5004644;28;20577;-53
2022/09/06 04:35:56;;;;;;;6.33;1.50;;;14.20;99.90;;;;;;5006663;28;20463;-53
2022/09/06 04:38:23;;;;;;;11.00;1.33;;;14.20;99.90;;;;;;5004195;28;20837;-52
2022/09/06 04:40:49;;;;;;;3.80;1.30;;;14.20;99.90;;;;;;5003857;28;20573;-53
2022/09/06 04:43:16;;;;;;;1.67;1.00;;;14.20;99.90;;;;;;5006101;28;20918;-52
2022/09/06 04:45:44;;;;;;;1.73;1.63;;;14.20;99.90;;;;;;5003659;28;20488;-52
2022/09/06 04:48:12;;;;;;;2.63;1.20;;;14.20;99.90;;;;;;5001671;28;20487;-51
2022/09/06 04:50:38;;;;;;;3.43;1.00;;;14.20;99.90;;;;;;5003243;28;20520;-52
2022/09/06 04:53:05;;;;;;;3.43;1.30;;;14.20;99.90;;;;;;5003173;28;20503;-53
2022/09/06 04:55:32;;;;;;;1.20;1.10;;;14.20;99.90;;;;;;5004899;28;20495;-53
2022/09/06 04:57:59;;;;;;;3.53;1.10;;;14.20;99.90;;;;;;5007046;28;20463;-53
2022/09/06 05:00:26;;;;;;;1.37;1.27;;;14.20;99.90;;;;;;5004658;28;20459;-53
2022/09/06 05:02:53;;;;;;;1.13;1.07;;;14.20;99.90;;;;;;5003873;28;20514;-53
2022/09/06 05:05:22;;;;;;;3.40;1.57;;;14.10;99.90;;;;;;5007079;28;20499;-53
2022/09/06 05:07:51;;;;;;;4.07;1.53;;;14.10;99.90;;;;;;5001137;28;20464;-53
2022/09/06 05:10:17;;;;;;;6.00;1.60;;;14.10;99.90;;;;;;5007725;28;20455;-52
2022/09/06 05:12:47;;;;;;;4.30;1.50;;;14.10;99.90;;;;;;5008343;28;20560;-51
2022/09/06 05:15:13;;;;;;;5.90;1.40;;;14.10;99.90;;;;;;5003470;28;20525;-52
2022/09/06 05:17:40;;;;;;;1.93;1.10;;;14.10;99.90;;;;;;5008936;28;20549;-51
2022/09/06 05:20:08;;;;;;;6.30;1.80;;;14.10;99.90;;;;;;5011543;28;20565;-51
2022/09/06 05:22:36;;;;;;;1.83;1.50;;;14.10;99.90;;;;;;5012917;28;20491;-52
2022/09/06 05:25:03;;;;;;;1.63;1.30;;;14.20;99.90;;;;;;5009737;28;20542;-51
2022/09/06 05:27:30;;;;;;;1.97;1.30;;;14.20;99.90;;;;;;5011005;28;20464;-52
2022/09/06 05:29:56;;;;;;;3.10;1.67;;;14.20;99.90;;;;;;5012157;28;20522;-51
2022/09/06 05:32:23;;;;;;;3.63;1.40;;;14.30;99.90;;;;;;5004286;28;20549;-52
2022/09/06 05:34:50;;;;;;;1.87;1.13;;;14.30;99.90;;;;;;5011093;28;20565;-51
2022/09/06 05:37:16;;;;;;;4.03;1.40;;;14.30;99.90;;;;;;5021561;23;20514;-50
2022/09/06 05:39:44;;;;;;;1.67;1.57;;;14.40;99.90;;;;;;5008718;28;20468;-50
2022/09/06 05:42:11;;;;;;;1.83;1.20;;;14.40;99.90;;;;;;5012049;28;20689;-49
2022/09/06 05:44:38;;;;;;;1.53;1.30;;;14.50;99.90;;;;;;5005350;28;20463;-49
2022/09/06 05:47:04;;;;;;;1.30;1.20;;;14.50;99.90;;;;;;5005319;28;20465;-49
2022/09/06 05:49:32;;;;;;;2.90;1.27;;;14.50;99.90;;;;;;5011227;28;20554;-49
2022/09/06 05:51:58;;;;;;;3.03;1.20;;;14.50;99.90;;;;;;5012226;28;20463;-50
2022/09/06 05:54:25;;;;;;;3.47;1.07;;;14.60;99.90;;;;;;5012558;28;20469;-50
2022/09/06 05:56:53;;;;;;;1.60;1.00;;;14.60;99.90;;;;;;5009284;28;20518;-48
2022/09/06 05:59:19;;;;;;;1.13;1.03;;;14.70;99.90;;;;;;5016922;28;20456;-49
2022/09/06 06:01:47;;;;;;;1.40;1.30;;;14.70;99.90;;;;;;5008638;28;20488;-50
2022/09/06 06:04:14;;;;;;;1.20;1.10;;;14.70;99.90;;;;;;5011996;28;20463;-49
2022/09/06 06:06:41;;;;;;;1.70;1.17;;;14.80;99.90;;;;;;5008565;28;20467;-50
2022/09/06 06:09:08;;;;;;;3.13;1.20;;;14.90;99.90;;;;;;5010822;28;20574;-49
2022/09/06 06:11:34;;;;;;;5.23;1.43;;;14.90;99.90;;;;;;5013877;28;20514;-50
2022/09/06 06:14:03;;;;;;;1.30;1.20;;;15.00;99.90;;;;;;5011079;28;20456;-50
2022/09/06 06:16:30;;;;;;;1.57;1.07;;;15.10;99.90;;;;;;5017079;28;20460;-50
2022/09/06 06:18:57;;;;;;;1.23;1.13;;;15.10;99.90;;;;;;5009027;28;20483;-50
2022/09/06 06:21:25;;;;;;;1.47;1.03;;;15.20;99.90;;;;;;5009421;28;20526;-50
2022/09/06 06:23:53;;;;;;;3.17;1.37;;;15.30;99.90;;;;;;5009872;28;20459;-50
2022/09/06 06:26:20;;;;;;;1.97;1.10;;;15.40;99.90;;;;;;5011396;28;20817;-49
2022/09/06 06:28:47;;;;;;;5.60;1.90;;;15.40;99.90;;;;;;5008615;28;20483;-49
2022/09/06 06:31:15;;;;;;;8.77;2.73;;;15.50;99.90;;;;;;5010651;28;20459;-50
2022/09/06 06:33:43;;;;;;;7.77;1.60;;;15.50;99.90;;;;;;5007825;28;20530;-49
2022/09/06 06:36:20;;;;;;;3.47;1.40;;;15.60;99.90;;;;;;5009046;28;20537;-49
2022/09/06 06:38:48;;;;;;;3.33;1.50;;;15.70;99.90;;;;;;5007420;28;20510;-50
2022/09/06 06:41:17;;;;;;;4.03;1.80;;;15.80;99.90;;;;;;5008626;28;20484;-50
2022/09/06 06:43:44;;;;;;;4.50;1.23;;;15.80;99.90;;;;;;5006583;28;21096;-50
2022/09/06 06:46:12;;;;;;;2.13;1.20;;;15.90;99.90;;;;;;5009235;28;20525;-51
2022/09/06 06:48:40;;;;;;;3.03;1.50;;;16.00;99.90;;;;;;5011083;28;20545;-49
2022/09/06 06:51:08;;;;;;;1.60;1.50;;;16.10;99.90;;;;;;5009670;28;20464;-50
2022/09/06 06:53:35;;;;;;;2.70;1.00;;;16.20;99.90;;;;;;5004025;28;20463;-50
2022/09/06 06:56:12;;;;;;;4.20;1.40;;;16.20;99.90;;;;;;5010895;28;22253;-50
2022/09/06 06:58:39;;;;;;;1.80;1.43;;;16.30;99.90;;;;;;5008108;28;21143;-49
2022/09/06 07:01:05;;;;;;;1.50;1.40;;;16.30;99.90;;;;;;5003130;28;20812;-55
2022/09/06 07:03:32;;;;;;;1.57;1.30;;;16.40;99.90;;;;;;5007782;28;20463;-53
2022/09/06 07:06:00;;;;;;;4.90;1.33;;;16.40;99.90;;;;;;5003544;28;20560;-54
2022/09/06 07:08:26;;;;;;;2.20;1.33;;;16.40;99.90;;;;;;5002516;28;21005;-55
2022/09/06 07:10:53;;;;;;;4.03;1.60;;;16.40;99.90;;;;;;5011742;28;20845;-55
2022/09/06 07:13:19;;;;;;;11.93;1.60;;;16.40;99.90;;;;;;5005087;28;20464;-54
2022/09/06 07:15:46;;;;;;;3.73;1.73;;;16.40;99.90;;;;;;5009206;28;20518;-54
2022/09/06 07:18:15;;;;;;;6.27;1.90;;;16.40;99.90;;;;;;5017012;28;20509;-55
2022/09/06 07:20:42;;;;;;;3.53;1.60;;;16.40;99.90;;;;;;5018750;28;20506;-55
2022/09/06 07:23:10;;;;;;;5.83;1.93;;;16.40;99.90;;;;;;5006659;28;21086;-55
2022/09/06 07:25:36;;;;;;;4.70;1.60;;;16.40;99.90;;;;;;5018304;28;20463;-55
2022/09/06 07:28:06;;;;;;;4.00;2.70;;;16.50;99.90;;;;;;5011764;28;20480;-54
2022/09/06 07:30:35;;;;;;;4.80;1.60;;;16.50;99.90;;;;;;5017112;28;20468;-54
2022/09/06 07:33:04;;;;;;;7.03;1.70;;;16.60;99.90;;;;;;5008288;28;20944;-54
2022/09/06 07:35:30;;;;;;;2.07;1.87;;;16.80;99.90;;;;;;5011519;28;20992;-54
2022/09/06 07:37:59;;;;;;;3.23;1.70;;;16.90;99.90;;;;;;5012789;28;20486;-55
2022/09/06 07:40:29;;;;;;;3.00;1.60;;;17.00;99.90;;;;;;5016139;28;20965;-55
2022/09/06 07:42:56;;;;;;;2.87;1.77;;;17.10;99.90;;;;;;5010909;28;20542;-56
2022/09/06 07:45:23;;;;;;;4.90;2.30;;;17.20;99.90;;;;;;5011558;28;20464;-55
2022/09/06 07:47:54;;;;;;;7.37;2.03;;;17.20;99.90;;;;;;5014808;28;20491;-55
2022/09/06 07:50:21;;;;;;;3.77;1.60;;;17.30;99.90;;;;;;5010199;28;20464;-54
2022/09/06 07:52:48;;;;;;;6.03;1.50;;;17.40;99.90;;;;;;5009775;28;20459;-54
2022/09/06 07:55:14;;;;;;;5.00;2.30;;;17.50;1.40;;;;;;5010528;28;20464;-54
2022/09/06 07:57:42;;;;;;;4.40;2.53;;;17.50;99.90;;;;;;5007572;28;20483;-54
2022/09/06 08:00:11;;;;;;;7.13;2.10;;;17.60;99.90;;;;;;5010225;28;21156;-55
2022/09/06 08:02:39;;;;;;;1.70;1.60;;;17.70;99.90;;;;;;5007050;28;20487;-54
2022/09/06 08:05:06;;;;;;;6.23;2.50;;;17.70;1.40;;;;;;5012846;28;20468;-54
2022/09/06 08:07:33;;;;;;;1.57;1.47;;;17.90;99.90;;;;;;5006675;28;20914;-53
2022/09/06 08:09:59;;;;;;;4.23;1.97;;;18.00;99.90;;;;;;5013615;28;20612;-54
2022/09/06 08:12:28;;;;;;;5.37;2.43;;;18.20;99.90;;;;;;5008017;28;20456;-54
2022/09/06 08:14:56;;;;;;;4.17;2.07;;;18.40;1.40;;;;;;5010184;28;20501;-53
2022/09/06 08:17:22;;;;;;;3.20;2.17;;;18.50;99.90;;;;;;5011473;28;20860;-54
2022/09/06 08:19:49;;;;;;;1.97;1.87;;;18.50;99.90;;;;;;5012485;28;20459;-54
2022/09/06 08:22:16;;;;;;;12.23;2.20;;;18.50;99.90;;;;;;5008587;28;20550;-55
2022/09/06 08:24:42;;;;;;;3.20;2.00;;;18.60;99.90;;;;;;5009778;28;20510;-55
2022/09/06 08:27:10;;;;;;;2.70;2.40;;;18.60;99.90;;;;;;5015308;28;20472;-55
2022/09/06 08:29:36;;;;;;;3.33;2.33;;;18.60;99.90;;;;;;5008847;28;20550;-54
2022/09/06 08:32:04;;;;;;;12.90;3.07;;;18.60;99.90;;;;;;5007082;28;20842;-54
2022/09/06 08:34:31;;;;;;;3.33;2.27;;;18.60;99.90;;;;;;5009344;28;20463;-54
2022/09/06 08:36:57;;;;;;;9.20;2.50;;;18.60;99.90;;;;;;5007627;28;20537;-55
2022/09/06 08:39:24;;;;;;;5.90;2.80;;;18.50;99.90;;;;;;5013232;28;20961;-55
2022/09/06 08:41:55;;;;;;;2.97;2.50;;;18.50;1.40;;;;;;4997092;28;20880;-55
2022/09/06 08:44:25;;;;;;;2.70;2.47;;;18.60;99.90;;;;;;5007566;28;20877;-55
2022/09/06 08:46:56;;;;;;;3.40;2.50;;;18.60;99.90;;;;;;5008763;28;20513;-54
2022/09/06 08:49:26;;;;;;;15.07;3.00;;;18.80;99.90;;;;;;5013536;28;20961;-55
2022/09/06 08:52:15;;;;;;;3.00;2.70;;;18.80;99.90;;;;;;5009767;28;20512;-54
2022/09/06 08:54:48;;;;;;;5.43;1.93;;;18.90;99.90;;;;;;5007653;28;20514;-55
2022/09/06 08:57:27;;;;;;;14.33;3.63;;;19.10;99.90;;;;;;5002380;28;20510;-55
2022/09/06 08:59:59;;;;;;;11.97;2.87;;;19.10;99.90;;;;;;5006498;28;20484;-55
2022/09/06 09:02:26;;;;;;;10.83;3.00;;;19.10;99.90;;;;;;5006897;28;20882;-54
2022/09/06 09:05:00;;;;;;;3.83;2.77;;;19.20;99.90;;;;;;5010651;28;20974;-55
2022/09/06 09:07:36;;;;;;;10.77;3.00;;;19.30;99.90;;;;;;4999810;28;20550;-54
2022/09/06 09:10:09;;;;;;;4.10;2.40;;;19.40;99.90;;;;;;5008470;28;20537;-54
2022/09/06 09:12:44;;;;;;;4.33;3.03;;;19.50;99.90;;;;;;5009170;28;20463;-54
2022/09/06 09:15:13;;;;;;;7.60;2.83;;;19.50;99.90;;;;;;5007933;28;20775;-54
2022/09/06 09:17:40;;;;;;;3.43;3.03;;;19.50;99.90;;;;;;5009014;28;20557;-55
2022/09/06 09:20:09;;;;;;;4.47;2.50;;;19.50;99.90;;;;;;5008688;28;20518;-54
2022/09/06 09:22:35;;;;;;;13.27;3.20;;;19.30;99.90;;;;;;5007161;28;20484;-55
2022/09/06 09:25:04;;;;;;;2.73;2.50;;;19.40;99.90;;;;;;5012468;28;20518;-55
2022/09/06 09:27:33;;;;;;;13.73;2.53;;;19.40;99.90;;;;;;5009352;28;20553;-55
2022/09/06 09:30:02;;;;;;;4.83;2.80;;;19.40;99.90;;;;;;5017798;28;20460;-54
2022/09/06 09:32:33;;;;;;;3.13;2.03;;;19.50;99.90;;;;;;5005481;28;20459;-54
2022/09/06 09:35:19;;;;;;;2.80;2.50;;;19.50;99.90;;;;;;5009602;28;20471;-55
2022/09/06 09:37:46;;;;;;;8.43;2.63;;;19.40;99.90;;;;;;5007902;28;20495;-55
2022/09/06 09:40:15;;;;;;;11.70;2.97;;;19.40;99.90;;;;;;5012393;28;20889;-54
2022/09/06 09:42:43;;;;;;;4.50;2.20;;;19.40;99.90;;;;;;5008387;28;20483;-55
2022/09/06 09:45:24;;;;;;;5.90;2.93;;;19.40;99.90;;;;;;5009463;28;20460;-54
2022/09/06 09:47:52;;;;;;;2.50;2.30;;;19.40;99.90;;;;;;5002562;28;21066;-54
2022/09/06 09:50:26;;;;;;;8.40;2.97;;;19.30;99.90;;;;;;5009574;28;20537;-56
2022/09/06 09:52:53;;;;;;;3.33;2.70;;;19.20;99.90;;;;;;5005173;28;20467;-54
2022/09/06 09:55:24;;;;;;;8.80;2.30;;;19.30;99.90;;;;;;5013247;28;20459;-54
2022/09/06 09:57:53;;;;;;;4.20;2.13;;;19.20;99.90;;;;;;5010669;28;20479;-54
2022/09/06 10:00:33;;;;;;;4.30;2.50;;;19.30;99.90;;;;;;5010562;28;20522;-55
2022/09/06 10:03:10;;;;;;;10.43;2.70;;;19.30;99.90;;;;;;5008586;28;20479;-54
2022/09/06 10:05:39;;;;;;;11.63;2.50;;;19.30;99.90;;;;;;5008534;28;20846;-54
2022/09/06 10:08:11;;;;;;;18.20;2.67;;;19.30;99.90;;;;;;5003648;28;20510;-55
2022/09/06 10:10:41;;;;;;;3.40;2.03;;;19.40;99.90;;;;;;5005904;28;20465;-56
2022/09/06 10:13:13;;;;;;;8.70;2.70;;;19.50;99.90;;;;;;5005861;28;20953;-56
2022/09/06 10:15:40;;;;;;;17.23;4.90;;;19.60;99.90;;;;;;5003856;28;20920;-55
2022/09/06 10:18:16;;;;;;;7.33;2.47;;;19.70;99.90;;;;;;5009069;28;20487;-55
2022/09/06 10:20:52;;;;;;;15.73;2.40;;;19.80;99.90;;;;;;5009976;28;20883;-55
2022/09/06 10:23:28;;;;;;;6.00;2.30;;;19.90;99.90;;;;;;5006425;28;20515;-55
2022/09/06 10:26:04;;;;;;;5.50;2.50;;;20.00;99.90;;;;;;5007169;28;20455;-54
2022/09/06 10:28:35;;;;;;;8.80;2.60;;;19.90;99.90;;;;;;5000403;28;21092;-55
2022/09/06 10:31:33;;;;;;;8.90;2.93;;;19.90;99.90;;;;;;5003551;28;20460;-54
2022/09/06 10:34:32;;;;;;;4.07;1.80;;;19.80;99.90;;;;;;5006010;28;20506;-54
2022/09/06 10:37:16;;;;;;;2.63;2.13;;;19.70;99.90;;;;;;4983327;28;20523;-55
2022/09/06 10:39:49;;;;;;;2.50;2.30;;;19.80;99.90;;;;;;5006875;28;20479;-55
2022/09/06 10:42:27;;;;;;;2.63;2.33;;;19.70;99.90;;;;;;5006350;28;20543;-54
2022/09/06 10:45:15;;;;;;;4.27;2.53;;;19.70;99.90;;;;;;5007997;28;20475;-54
2022/09/06 10:47:57;;;;;;;4.00;2.40;;;19.80;99.90;;;;;;5004839;28;20491;-54
2022/09/06 10:50:28;;;;;;;3.80;2.53;;;19.80;99.90;;;;;;5003524;28;20456;-52
2022/09/06 10:53:02;;;;;;;4.10;2.47;;;19.80;99.90;;;;;;5008107;28;20460;-53
2022/09/06 10:55:31;;;;;;;3.53;2.50;;;19.80;99.90;;;;;;5004895;28;20506;-53
2022/09/06 10:58:03;;;;;;;7.10;2.23;;;19.90;99.90;;;;;;5006960;28;20487;-54
2022/09/06 11:00:34;;;;;;;11.70;2.93;;;19.90;99.90;;;;;;4992900;28;20889;-54
2022/09/06 11:03:08;;;;;;;3.00;1.90;;;20.00;99.90;;;;;;5005564;28;20538;-54
2022/09/06 11:05:41;;;;;;;5.00;1.90;;;20.10;99.90;;;;;;5003320;28;21718;-53
2022/09/06 11:08:15;;;;;;;11.53;2.27;;;20.00;99.90;;;;;;4995565;28;20487;-54
2022/09/06 11:10:46;;;;;;;3.53;2.00;;;20.10;99.90;;;;;;5007140;28;20998;-54
2022/09/06 11:13:16;;;;;;;2.10;1.97;;;20.10;99.90;;;;;;5004365;28;20534;-53
2022/09/06 11:15:46;;;;;;;2.40;2.00;;;20.10;99.90;;;;;;5005177;28;20464;-53
2022/09/06 11:18:19;;;;;;;6.93;2.73;;;20.20;99.90;;;;;;5011041;28;20483;-53
2022/09/06 11:20:54;;;;;;;7.47;2.13;;;20.10;99.90;;;;;;5009962;28;20464;-53
2022/09/06 11:23:42;;;;;;;6.53;1.70;;;20.10;99.90;;;;;;5004437;28;20494;-54
2022/09/06 11:26:34;;;;;;;14.70;2.03;;;20.00;99.90;;;;;;5004602;28;20929;-53
2022/09/06 11:29:04;;;;;;;6.83;1.90;;;20.00;99.90;;;;;;5009580;28;20471;-53
2022/09/06 11:31:33;;;;;;;2.37;1.87;;;20.00;99.90;;;;;;5005900;28;20521;-53
2022/09/06 11:34:11;;;;;;;5.33;2.33;;;20.10;99.90;;;;;;5005978;28;20468;-53
2022/09/06 11:36:44;;;;;;;2.73;2.00;;;20.10;99.90;;;;;;5001986;28;20468;-53
2022/09/06 11:39:15;;;;;;;5.47;2.43;;;20.10;99.90;;;;;;4997604;28;20522;-55
2022/09/06 11:41:42;;;;;;;2.57;1.97;;;20.10;99.90;;;;;;4997531;28;20465;-56
2022/09/06 11:44:10;;;;;;;3.60;1.87;;;20.20;99.90;;;;;;5009038;28;20491;-56
2022/09/06 11:47:02;;;;;;;5.10;2.57;;;20.20;99.90;;;;;;5002841;28;20460;-56
2022/09/06 11:49:36;;;;;;;4.20;2.00;;;20.20;99.90;;;;;;5002198;28;20496;-55
2022/09/06 11:52:22;;;;;;;7.80;2.30;;;20.20;99.90;;;;;;5006310;28;20444;-55
2022/09/06 11:54:52;;;;;;;3.30;1.60;;;20.20;99.90;;;;;;5004542;28;20491;-55
2022/09/06 11:57:22;;;;;;;11.97;4.63;;;20.20;99.90;;;;;;5000057;28;20569;-56
2022/09/06 11:59:59;;;;;;;3.33;2.33;;;20.30;99.90;;;;;;5004505;28;20467;-56
2022/09/06 12:02:37;;;;;;;2.20;1.77;;;20.30;99.90;;;;;;5002863;28;20554;-56
2022/09/06 12:05:19;;;;;;;8.00;2.10;;;20.30;99.90;;;;;;4988601;28;20933;-56
2022/09/06 12:08:24;;;;;;;3.23;2.27;;;20.40;99.90;;;;;;5001460;28;21016;-57
2022/09/06 12:11:13;;;;;;;1.43;1.33;;;20.40;99.90;;;;;;5004263;28;20466;-56
2022/09/06 12:13:46;;;;;;;4.30;1.77;;;20.40;99.90;;;;;;5005247;28;20969;-56
2022/09/06 12:16:15;;;;;;;12.30;1.87;;;20.50;99.90;;;;;;5006723;28;20566;-56
2022/09/06 12:19:01;;;;;;;2.73;1.90;;;20.50;99.90;;;;;;5005897;28;20496;-57
2022/09/06 12:21:40;;;;;;;6.33;2.20;;;20.50;99.90;;;;;;4997480;28;20463;-56
2022/09/06 12:24:09;;;;;;;4.73;2.00;;;20.60;99.90;;;;;;5007842;28;20483;-55
2022/09/06 12:26:49;;;;;;;4.07;1.70;;;20.60;99.90;;;;;;4994283;28;20479;-57
2022/09/06 12:29:17;;;;;;;3.10;1.83;;;20.60;99.90;;;;;;5000689;28;20566;-56
2022/09/06 12:31:51;;;;;;;3.13;2.27;;;20.60;99.90;;;;;;5004390;28;20455;-56
2022/09/06 12:34:21;;;;;;;3.83;2.07;;;20.70;99.90;;;;;;5007047;28;20454;-56
2022/09/06 12:36:55;;;;;;;2.80;2.13;;;20.70;99.90;;;;;;5003606;28;20460;-56
2022/09/06 12:39:22;;;;;;;9.50;2.47;;;20.70;99.90;;;;;;5005974;28;20481;-56
2022/09/06 12:41:53;;;;;;;5.87;2.30;;;20.70;99.90;;;;;;4999134;28;20467;-57
2022/09/06 12:44:29;;;;;;;17.20;2.83;;;20.80;99.90;;;;;;5004057;28;20861;-56
2022/09/06 12:47:02;;;;;;;6.10;2.50;;;20.80;99.90;;;;;;5002968;28;20989;-56
2022/09/06 12:49:29;;;;;;;14.53;2.57;;;20.80;99.90;;;;;;5006350;28;20513;-56
2022/09/06 12:52:07;;;;;;;3.27;2.13;;;20.80;99.90;;;;;;4996960;28;20491;-56
2022/09/06 12:54:40;;;;;;;9.60;2.33;;;20.90;99.90;;;;;;4998781;28;21172;-55
2022/09/06 12:57:19;;;;;;;2.80;2.53;;;20.90;99.90;;;;;;5000275;28;20889;-55
2022/09/06 12:59:52;;;;;;;16.80;2.73;;;20.90;99.90;;;;;;5006490;28;20465;-55
2022/09/06 13:02:27;;;;;;;5.33;2.30;;;20.90;99.90;;;;;;5003689;28;20468;-55